createdAt,value
2019-03-05T00:00:44.529Z,6.37
2019-03-05T00:03:13.965Z,5.43
2019-03-05T00:05:43.430Z,7.27
2019-03-05T00:08:12.849Z,4.33
2019-03-05T00:10:42.354Z,8.97
2019-03-05T00:13:12.007Z,9.00
2019-03-05T00:15:42.250Z,11.10
2019-03-05T00:18:12.211Z,7.63
2019-03-05T00:23:49.497Z,9.07
2019-03-05T00:26:24.461Z,9.03
2019-03-05T00:29:02.549Z,8.03
2019-03-05T00:31:35.097Z,7.67
2019-03-05T00:34:07.680Z,7.67
2019-03-05T00:36:46.695Z,10.03
2019-03-05T00:39:24.771Z,5.67
2019-03-05T00:42:01.477Z,7.90
2019-03-05T00:44:53.219Z,7.57
2019-03-05T00:47:34.605Z,10.70
2019-03-05T00:50:21.984Z,9.83
2019-03-05T00:53:12.490Z,8.13
2019-03-05T00:55:56.659Z,9.03
2019-03-05T00:58:34.899Z,7.97
2019-03-05T01:01:19.050Z,7.33
2019-03-05T01:04:03.315Z,10.37
2019-03-05T01:06:32.821Z,10.10
2019-03-05T01:09:02.480Z,8.43
2019-03-05T01:11:32.221Z,9.33
2019-03-05T01:14:01.893Z,8.70
2019-03-05T01:16:32.923Z,7.43
2019-03-05T01:19:02.367Z,11.67
2019-03-05T01:21:31.919Z,7.57
2019-03-05T01:24:01.431Z,6.97
2019-03-05T01:26:31.028Z,10.57
2019-03-05T01:29:00.596Z,13.90
2019-03-05T01:31:43.542Z,8.20
2019-03-05T01:34:17.277Z,9.67
2019-03-05T01:36:48.529Z,10.63
2019-03-05T01:39:34.561Z,12.00
2019-03-05T01:42:05.760Z,13.87
2019-03-05T01:44:35.249Z,10.07
2019-03-05T01:47:05.186Z,12.13
2019-03-05T01:49:34.652Z,9.93
2019-03-05T01:52:04.187Z,9.00
2019-03-05T01:54:35.392Z,11.07
2019-03-05T01:57:04.851Z,6.33
2019-03-05T01:59:34.401Z,8.27
2019-03-05T02:02:04.012Z,9.50
2019-03-05T02:04:33.518Z,6.87
2019-03-05T02:07:03.177Z,9.50
2019-03-05T02:09:32.501Z,12.10
2019-03-05T02:12:02.134Z,8.10
2019-03-05T02:14:31.723Z,13.80
2019-03-05T02:17:01.140Z,12.83
2019-03-05T02:19:38.233Z,13.77
2019-03-05T02:22:13.671Z,12.50
2019-03-05T02:25:00.949Z,10.63
2019-03-05T02:27:39.099Z,8.87
2019-03-05T02:30:29.638Z,13.20
2019-03-05T02:33:02.210Z,8.30
2019-03-05T02:35:40.666Z,7.97
2019-03-05T02:38:18.968Z,9.03
2019-03-05T02:40:57.663Z,12.37
2019-03-05T02:43:50.986Z,11.17
2019-03-05T02:46:29.400Z,10.97
2019-03-05T02:49:04.756Z,8.37
2019-03-05T02:51:52.429Z,7.13
2019-03-05T02:54:59.732Z,9.50
2019-03-05T02:57:28.219Z,7.77
2019-03-05T02:59:57.560Z,8.90
2019-03-05T03:02:28.655Z,8.50
2019-03-05T03:04:59.796Z,9.20
2019-03-05T03:07:29.870Z,13.00
2019-03-05T03:10:11.425Z,8.67
2019-03-05T03:12:40.942Z,8.77
2019-03-05T03:15:11.416Z,8.37
2019-03-05T03:17:40.934Z,8.77
2019-03-05T03:20:12.601Z,12.17
2019-03-05T03:22:42.144Z,7.83
2019-03-05T03:25:17.587Z,7.83
2019-03-05T03:27:47.257Z,7.67
2019-03-05T03:30:20.814Z,8.67
2019-03-05T03:32:50.509Z,6.40
2019-03-05T03:35:21.741Z,7.53
2019-03-05T03:37:51.217Z,6.90
2019-03-05T03:40:21.078Z,8.40
2019-03-05T03:42:50.537Z,7.70
2019-03-05T03:45:20.893Z,11.37
2019-03-05T03:47:50.325Z,6.20
2019-03-05T03:50:19.780Z,4.93
2019-03-05T03:52:49.404Z,8.37
2019-03-05T03:55:18.905Z,6.20
2019-03-05T03:57:48.409Z,8.30
2019-03-05T04:00:22.208Z,8.03
2019-03-05T04:02:51.786Z,6.50
2019-03-05T04:05:21.210Z,5.97
2019-03-05T04:07:50.720Z,5.77
2019-03-05T04:10:20.301Z,7.13
2019-03-05T04:12:49.810Z,8.13
2019-03-05T04:15:19.667Z,7.30
2019-03-05T04:17:49.264Z,10.27
2019-03-05T04:20:23.142Z,8.70
2019-03-05T04:22:52.654Z,9.80
2019-03-05T04:25:22.109Z,10.60
2019-03-05T04:27:51.724Z,9.17
2019-03-05T04:30:21.298Z,8.00
2019-03-05T04:32:52.462Z,6.00
2019-03-05T04:35:22.150Z,7.53
2019-03-05T04:37:51.600Z,6.30
2019-03-05T04:40:21.132Z,6.10
2019-03-05T04:42:50.550Z,8.17
2019-03-05T04:45:36.552Z,3.80
2019-03-05T04:48:06.034Z,4.90
2019-03-05T04:50:37.261Z,5.30
2019-03-05T04:53:06.660Z,5.90
2019-03-05T04:55:36.204Z,10.07
2019-03-05T04:58:05.671Z,6.20
2019-03-05T05:00:35.152Z,11.40
2019-03-05T05:03:04.622Z,7.50
2019-03-05T05:05:34.202Z,8.03
2019-03-05T05:08:03.671Z,11.80
2019-03-05T05:10:33.108Z,8.10
2019-03-05T05:13:02.530Z,9.00
2019-03-05T05:15:33.920Z,5.67
2019-03-05T05:18:03.565Z,6.93
2019-03-05T05:20:33.054Z,8.53
2019-03-05T05:23:04.022Z,6.50
2019-03-05T05:25:33.608Z,6.23
2019-03-05T05:28:03.109Z,9.53
2019-03-05T05:30:37.453Z,7.57
2019-03-05T05:33:07.948Z,8.97
2019-03-05T05:35:37.887Z,8.57
2019-03-05T05:38:07.391Z,5.70
2019-03-05T05:40:38.484Z,6.20
2019-03-05T05:43:10.536Z,6.60
2019-03-05T05:45:47.708Z,7.10
2019-03-05T05:48:17.225Z,7.47
2019-03-05T05:50:46.720Z,9.93
2019-03-05T05:53:16.390Z,9.53
2019-03-05T05:55:45.882Z,10.60
2019-03-05T05:58:15.373Z,10.90
2019-03-05T06:00:49.338Z,10.67
2019-03-05T06:03:18.970Z,8.10
2019-03-05T06:05:48.450Z,9.00
2019-03-05T06:08:18.086Z,9.13
2019-03-05T06:10:47.634Z,7.97
2019-03-05T06:13:17.130Z,7.23
2019-03-05T06:15:46.576Z,8.00
2019-03-05T06:18:16.037Z,7.73
2019-03-05T06:20:45.568Z,8.67
2019-03-05T06:23:15.148Z,7.30
2019-03-05T06:25:44.704Z,8.47
2019-03-05T06:28:14.178Z,9.80
2019-03-05T06:30:44.115Z,7.33
2019-03-05T06:33:13.549Z,7.13
2019-03-05T06:35:43.036Z,9.43
2019-03-05T06:38:12.538Z,10.77
2019-03-05T06:40:41.928Z,6.23
2019-03-05T06:43:11.370Z,10.87
2019-03-05T06:45:40.976Z,9.27
2019-03-05T06:48:10.498Z,9.70
2019-03-05T06:50:39.980Z,6.17
2019-03-05T06:53:09.423Z,10.60
2019-03-05T06:55:38.915Z,12.67
2019-03-05T06:58:08.448Z,14.77
2019-03-05T07:00:38.849Z,7.37
2019-03-05T07:03:09.375Z,10.87
2019-03-05T07:06:15.114Z,10.97
2019-03-05T07:08:53.408Z,10.60
2019-03-05T07:11:31.805Z,11.87
2019-03-05T07:14:04.345Z,12.87
2019-03-05T07:16:42.627Z,8.50
2019-03-05T07:19:12.290Z,11.43
2019-03-05T07:22:03.862Z,10.97
2019-03-05T07:24:38.456Z,15.33
2019-03-05T07:27:08.090Z,8.07
2019-03-05T07:29:37.696Z,9.97
2019-03-05T07:32:07.238Z,13.87
2019-03-05T07:34:38.395Z,12.67
2019-03-05T07:37:09.277Z,11.70
2019-03-05T07:39:38.739Z,12.40
2019-03-05T07:42:08.232Z,11.43
2019-03-05T07:44:37.839Z,11.27
2019-03-05T07:47:07.235Z,8.97
2019-03-05T07:49:43.658Z,11.43
2019-03-05T07:52:07.939Z,8.23
2019-03-05T07:54:37.368Z,11.17
2019-03-05T07:57:07.082Z,8.67
2019-03-05T07:59:36.597Z,8.63
2019-03-05T08:02:06.164Z,8.90
2019-03-05T08:04:35.650Z,9.13
2019-03-05T08:07:05.508Z,8.63
2019-03-05T08:09:36.284Z,7.80
2019-03-05T08:12:14.936Z,7.97
2019-03-05T08:15:02.240Z,6.00
2019-03-05T08:17:31.626Z,6.37
2019-03-05T08:20:01.090Z,9.33
2019-03-05T08:22:30.721Z,9.37
2019-03-05T08:25:00.352Z,6.97
2019-03-05T08:27:29.867Z,9.03
2019-03-05T08:29:59.370Z,5.80
2019-03-05T08:32:28.816Z,6.60
2019-03-05T08:34:58.299Z,7.83
2019-03-05T08:37:27.904Z,9.07
2019-03-05T08:39:57.326Z,8.23
2019-03-05T08:42:28.448Z,10.50
2019-03-05T08:44:58.006Z,7.13
2019-03-05T08:47:27.526Z,7.47
2019-03-05T08:49:56.987Z,11.27
2019-03-05T08:52:26.402Z,11.33
2019-03-05T08:54:55.840Z,8.23
2019-03-05T08:57:25.265Z,8.07
2019-03-05T08:59:54.689Z,11.97
2019-03-05T09:02:24.176Z,6.33
2019-03-05T09:04:53.736Z,8.47
2019-03-05T09:07:23.151Z,11.40
2019-03-05T09:09:52.753Z,11.80
2019-03-05T09:12:22.255Z,11.30
2019-03-05T09:14:51.695Z,8.17
2019-03-05T09:17:21.173Z,9.47
2019-03-05T09:19:50.743Z,9.33
2019-03-05T09:22:20.423Z,7.40
2019-03-05T09:24:49.916Z,10.37
2019-03-05T09:27:19.487Z,10.47
2019-03-05T09:29:48.919Z,4.90
2019-03-05T09:32:18.439Z,7.63
2019-03-05T09:34:47.899Z,9.40
2019-03-05T09:37:17.403Z,7.50
2019-03-05T09:39:46.856Z,7.30
2019-03-05T09:42:16.427Z,10.77
2019-03-05T09:44:45.933Z,6.37
2019-03-05T09:47:15.461Z,4.37
2019-03-05T09:49:45.073Z,8.47
2019-03-05T09:52:14.597Z,6.70
2019-03-05T09:54:44.150Z,2.97
2019-03-05T09:57:13.569Z,5.43
2019-03-05T09:59:43.149Z,4.97
2019-03-05T10:02:12.718Z,2.50
2019-03-05T10:04:42.277Z,6.07
2019-03-05T10:07:18.801Z,2.60
2019-03-05T10:09:43.233Z,4.13
2019-03-05T10:12:12.830Z,4.07
2019-03-05T10:14:42.483Z,3.20
2019-03-05T10:17:12.091Z,5.60
2019-03-05T10:19:41.580Z,4.80
2019-03-05T10:22:11.458Z,3.57
2019-03-05T10:24:40.905Z,5.13
2019-03-05T10:27:12.585Z,4.73
2019-03-05T10:29:42.195Z,5.37
2019-03-05T10:32:11.905Z,2.67
2019-03-05T10:34:41.373Z,3.37
2019-03-05T10:37:16.899Z,5.97
2019-03-05T10:39:42.243Z,2.00
2019-03-05T10:42:11.805Z,5.53
2019-03-05T10:44:41.451Z,10.40
2019-03-05T10:47:11.357Z,5.90
2019-03-05T10:49:40.939Z,5.97
2019-03-05T10:52:10.477Z,6.13
2019-03-05T10:54:40.261Z,5.17
2019-03-05T10:57:09.909Z,3.47
2019-03-05T10:59:39.498Z,8.10
2019-03-05T11:02:09.005Z,4.07
2019-03-05T11:04:45.756Z,6.13
2019-03-05T11:07:10.767Z,6.07
2019-03-05T11:09:41.889Z,4.70
2019-03-05T11:12:11.431Z,5.13
2019-03-05T11:14:40.904Z,7.97
2019-03-05T11:17:10.485Z,7.43
2019-03-05T11:19:40.211Z,4.60
2019-03-05T11:22:10.695Z,4.33
2019-03-05T11:24:40.447Z,7.43
2019-03-05T11:27:10.042Z,8.03
2019-03-05T11:29:39.483Z,6.63
2019-03-05T11:32:09.263Z,6.40
2019-03-05T11:34:38.759Z,4.30
2019-03-05T11:37:08.349Z,7.73
2019-03-05T11:39:37.947Z,8.23
2019-03-05T11:42:07.477Z,6.70
2019-03-05T11:44:37.101Z,8.53
2019-03-05T11:47:06.691Z,4.63
2019-03-05T11:49:36.109Z,5.63
2019-03-05T11:52:05.639Z,7.17
2019-03-05T11:54:35.284Z,6.80
2019-03-05T11:57:04.775Z,6.33
2019-03-05T11:59:34.324Z,5.73
2019-03-05T12:02:04.036Z,6.30
2019-03-05T12:04:33.669Z,5.97
2019-03-05T12:07:04.609Z,6.77
2019-03-05T12:09:34.193Z,9.50
2019-03-05T12:12:03.809Z,5.77
2019-03-05T12:14:33.543Z,8.17
2019-03-05T12:17:02.968Z,5.03
2019-03-05T12:19:32.470Z,4.67
2019-03-05T12:22:01.978Z,11.07
2019-03-05T12:24:32.195Z,9.53
2019-03-05T12:27:01.691Z,8.20
2019-03-05T12:29:31.269Z,4.43
2019-03-05T12:32:01.131Z,8.67
2019-03-05T12:34:30.748Z,5.93
2019-03-05T12:37:00.223Z,4.47
2019-03-05T12:39:29.728Z,5.00
2019-03-05T12:41:59.169Z,7.63
2019-03-05T12:44:28.724Z,7.20
2019-03-05T12:46:58.231Z,8.77
2019-03-05T12:49:27.649Z,6.30
2019-03-05T12:51:57.171Z,6.47
2019-03-05T12:54:26.713Z,7.47
2019-03-05T12:56:56.239Z,5.63
2019-03-05T12:59:27.375Z,6.07
2019-03-05T13:01:57.028Z,5.63
2019-03-05T13:04:28.223Z,4.70
2019-03-05T13:06:57.735Z,6.03
2019-03-05T13:09:27.341Z,6.27
2019-03-05T13:11:57.821Z,4.20
2019-03-05T13:14:27.295Z,7.13
2019-03-05T13:16:58.552Z,4.70
2019-03-05T13:19:28.210Z,6.63
2019-03-05T13:21:57.743Z,12.03
2019-03-05T13:24:27.248Z,6.77
2019-03-05T13:26:56.728Z,9.33
2019-03-05T13:29:26.235Z,6.00
2019-03-05T13:31:55.779Z,6.57
2019-03-05T13:34:25.328Z,8.60
2019-03-05T13:36:54.856Z,5.53
2019-03-05T13:39:24.503Z,5.33
2019-03-05T13:41:54.979Z,8.73
2019-03-05T13:44:32.228Z,4.57
2019-03-05T13:47:04.289Z,4.43
2019-03-05T13:49:56.257Z,3.73
2019-03-05T13:52:36.105Z,11.00
2019-03-05T13:55:12.962Z,4.83
2019-03-05T13:58:09.479Z,4.87
2019-03-05T14:00:38.864Z,4.80
2019-03-05T14:03:11.448Z,5.57
2019-03-05T14:06:11.030Z,7.37
2019-03-05T14:08:52.407Z,7.77
2019-03-05T14:11:21.997Z,5.57
2019-03-05T14:13:51.557Z,11.03
2019-03-05T14:16:21.737Z,7.27
2019-03-05T14:18:51.393Z,7.73
2019-03-05T14:21:20.849Z,7.73
2019-03-05T14:23:50.566Z,10.00
2019-03-05T14:26:20.067Z,5.47
2019-03-05T14:28:49.652Z,6.43
2019-03-05T14:31:19.166Z,5.73
2019-03-05T14:33:50.381Z,8.97
2019-03-05T14:36:19.846Z,8.90
2019-03-05T14:38:49.494Z,7.57
2019-03-05T14:41:19.066Z,8.03
2019-03-05T14:43:48.505Z,6.47
2019-03-05T14:46:18.035Z,7.13
2019-03-05T14:48:47.671Z,7.53
2019-03-05T14:51:17.323Z,9.90
2019-03-05T14:53:46.836Z,4.47
2019-03-05T14:56:16.993Z,6.50
2019-03-05T14:58:47.788Z,3.97
2019-03-05T15:01:17.297Z,8.20
2019-03-05T15:03:46.936Z,7.27
2019-03-05T15:06:16.463Z,12.47
2019-03-05T15:08:48.282Z,9.73
2019-03-05T15:11:17.791Z,5.97
2019-03-05T15:13:47.423Z,7.77
2019-03-05T15:16:16.995Z,8.70
2019-03-05T15:18:46.527Z,8.77
2019-03-05T15:21:15.933Z,5.07
2019-03-05T15:23:45.440Z,5.60
2019-03-05T15:26:14.980Z,7.03
2019-03-05T15:28:55.825Z,5.97
2019-03-05T15:31:15.665Z,8.87
2019-03-05T15:33:45.164Z,5.93
2019-03-05T15:36:23.717Z,6.50
2019-03-05T15:38:45.688Z,4.93
2019-03-05T15:41:15.173Z,14.83
2019-03-05T15:43:44.757Z,8.03
2019-03-05T15:46:14.220Z,6.23
2019-03-05T15:48:43.794Z,6.57
2019-03-05T15:51:13.336Z,6.83
2019-03-05T15:56:12.630Z,10.43
2019-03-05T15:58:42.160Z,9.10
2019-03-05T16:01:18.779Z,7.33
2019-03-05T16:03:42.858Z,6.70
2019-03-05T16:06:13.947Z,7.03
2019-03-05T16:08:43.742Z,10.43
2019-03-05T16:11:13.276Z,8.60
2019-03-05T16:13:42.980Z,8.03
2019-03-05T16:16:12.618Z,10.97
2019-03-05T16:18:42.114Z,5.80
2019-03-05T16:21:11.574Z,12.07
2019-03-05T16:23:41.116Z,8.37
2019-03-05T16:26:10.685Z,10.07
2019-03-05T16:28:43.575Z,12.57
2019-03-05T16:31:13.760Z,5.73
2019-03-05T16:33:57.202Z,5.87
2019-03-05T16:36:30.911Z,7.23
2019-03-05T16:45:03.069Z,10.43
2019-03-05T17:00:51.374Z,7.80
2019-03-05T17:35:41.720Z,15.00
2019-03-05T17:38:23.508Z,12.27
2019-03-05T17:47:45.300Z,12.80
2019-03-05T17:50:15.254Z,9.17
2019-03-05T17:52:44.779Z,9.37
2019-03-05T17:55:24.652Z,15.30
2019-03-05T17:57:55.699Z,9.83
2019-03-05T18:00:27.092Z,10.57
2019-03-05T18:02:56.673Z,10.90
2019-03-05T18:05:26.354Z,14.67
2019-03-05T18:07:55.955Z,9.37
2019-03-05T18:10:26.010Z,8.97
2019-03-05T18:12:55.782Z,15.30
2019-03-05T18:15:25.376Z,9.13
2019-03-05T18:17:55.012Z,12.37
2019-03-05T18:20:24.918Z,9.30
2019-03-05T18:22:54.352Z,12.77
2019-03-05T18:25:24.095Z,12.07
2019-03-05T18:27:53.599Z,8.23
2019-03-05T18:30:27.369Z,14.40
2019-03-05T18:32:57.216Z,10.43
2019-03-05T18:35:26.878Z,13.27
2019-03-05T18:37:56.459Z,14.50
2019-03-05T18:40:26.099Z,9.37
2019-03-05T18:42:55.553Z,10.07
2019-03-05T18:45:29.602Z,11.73
2019-03-05T18:47:59.187Z,10.57
2019-03-05T18:50:28.660Z,9.07
2019-03-05T18:52:59.385Z,12.47
2019-03-05T18:55:29.315Z,10.97
2019-03-05T18:57:58.904Z,9.37
2019-03-05T19:00:29.806Z,11.53
2019-03-05T19:03:14.102Z,14.53
2019-03-05T19:05:43.582Z,8.63
2019-03-05T19:08:13.097Z,12.37
2019-03-05T19:10:42.594Z,12.10
2019-03-05T19:13:12.109Z,9.33
2019-03-05T19:15:42.321Z,11.63
2019-03-05T19:18:11.829Z,9.27
2019-03-05T19:20:41.254Z,9.07
2019-03-05T19:23:10.718Z,8.13
2019-03-05T19:25:43.533Z,12.10
2019-03-05T19:28:13.334Z,10.20
2019-03-05T19:30:46.010Z,11.57
2019-03-05T19:33:15.584Z,10.97
2019-03-05T19:35:45.272Z,11.73
2019-03-05T19:38:14.947Z,11.87
2019-03-05T19:40:48.503Z,9.33
2019-03-05T19:43:18.168Z,9.27
2019-03-05T19:45:47.633Z,10.37
2019-03-05T19:48:17.181Z,9.10
2019-03-05T19:51:05.785Z,11.73
2019-03-05T19:53:35.523Z,11.40
2019-03-05T19:56:05.363Z,7.97
2019-03-05T19:58:34.978Z,9.67
2019-03-05T20:01:12.011Z,9.60
2019-03-05T20:03:41.715Z,8.33
2019-03-05T20:06:11.360Z,7.73
2019-03-05T20:08:40.900Z,7.80
2019-03-05T20:11:10.430Z,7.80
2019-03-05T20:13:40.229Z,12.70
2019-03-05T20:16:09.686Z,11.23
2019-03-05T20:18:39.405Z,8.23
2019-03-05T20:21:09.326Z,9.50
2019-03-05T20:23:38.878Z,9.13
2019-03-05T20:26:08.729Z,8.40
2019-03-05T20:28:38.288Z,10.10
2019-03-05T20:31:07.910Z,10.30
2019-03-05T20:33:37.495Z,8.37
2019-03-05T20:36:07.066Z,10.20
2019-03-05T20:38:36.657Z,9.47
2019-03-05T20:41:10.068Z,9.37
2019-03-05T20:43:39.677Z,7.87
2019-03-05T20:46:18.431Z,11.43
2019-03-05T20:48:48.051Z,8.40
2019-03-05T20:51:17.894Z,9.77
2019-03-05T20:53:47.419Z,6.87
2019-03-05T20:56:17.283Z,9.53
2019-03-05T20:58:46.794Z,12.33
2019-03-05T21:01:16.735Z,8.27
2019-03-05T21:03:46.215Z,9.80
2019-03-05T21:06:15.889Z,11.50
2019-03-05T21:08:45.476Z,10.87
2019-03-05T21:11:15.142Z,8.33
2019-03-05T21:16:25.831Z,12.23
2019-03-05T21:18:55.404Z,8.07
2019-03-05T21:21:24.881Z,10.33
2019-03-05T21:23:54.435Z,8.03
2019-03-05T21:26:23.861Z,8.97
2019-03-05T21:28:53.711Z,11.73
2019-03-05T21:31:23.189Z,11.73
2019-03-05T21:33:52.779Z,11.23
2019-03-05T21:36:22.313Z,11.60
2019-03-05T21:38:51.778Z,15.53
2019-03-05T21:41:21.472Z,13.83
2019-03-05T21:43:50.950Z,13.13
2019-03-05T21:46:26.631Z,12.63
2019-03-05T21:48:56.154Z,15.70
2019-03-05T21:51:26.183Z,17.53
2019-03-05T21:53:55.651Z,15.20
2019-03-05T21:56:31.939Z,15.77
2019-03-05T21:59:01.443Z,14.17
2019-03-05T22:01:31.035Z,16.03
2019-03-05T22:04:00.514Z,15.27
2019-03-05T22:06:29.999Z,14.70
2019-03-05T22:08:59.463Z,18.50
2019-03-05T22:11:29.233Z,15.70
2019-03-05T22:14:02.345Z,18.37
2019-03-05T22:16:31.831Z,19.87
2019-03-05T22:19:01.427Z,16.00
2019-03-05T22:21:31.167Z,16.77
2019-03-05T22:24:00.721Z,17.37
2019-03-05T22:26:30.344Z,20.47
2019-03-05T22:31:35.197Z,21.63
2019-03-05T22:34:04.987Z,17.67
2019-03-05T22:36:40.377Z,19.83
2019-03-05T22:39:10.441Z,19.47
2019-03-05T22:41:40.456Z,23.70
2019-03-05T22:44:10.177Z,17.80
2019-03-05T22:46:40.135Z,18.03
2019-03-05T22:49:09.919Z,23.63
2019-03-05T22:51:39.556Z,20.03
2019-03-05T22:54:09.063Z,18.10
2019-03-05T22:56:38.608Z,17.40
2019-03-05T22:59:08.394Z,17.10
2019-03-05T23:01:38.107Z,23.30
2019-03-05T23:07:01.416Z,19.10
2019-03-05T23:09:31.133Z,18.90
2019-03-05T23:12:00.743Z,20.33
2019-03-05T23:14:30.604Z,16.13
2019-03-05T23:17:00.248Z,22.70
2019-03-05T23:19:30.001Z,21.37
2019-03-05T23:21:59.701Z,18.70
2019-03-05T23:24:30.098Z,24.43
2019-03-05T23:26:59.723Z,24.27
2019-03-05T23:29:31.048Z,18.47
2019-03-05T23:32:00.678Z,19.00
2019-03-05T23:34:30.343Z,18.33
2019-03-05T23:37:00.060Z,17.93
2019-03-05T23:39:29.595Z,19.47
2019-03-05T23:41:59.353Z,19.50
2019-03-05T23:44:29.020Z,17.43
2019-03-05T23:46:58.719Z,20.03
2019-03-05T23:49:28.403Z,17.43
2019-03-05T23:51:57.963Z,20.30
2019-03-05T23:54:27.753Z,14.10
2019-03-05T23:56:57.331Z,14.50
2019-03-05T23:59:26.957Z,17.03
